sensor_id;sensor_type;location;lat;lon;timestamp;pressure;altitude;pressure_sealevel;temperature;humidity
62524;BME280;53689;56.878;60.672;2023-01-29T00:00:13;98137.44;;;22.14;22.78
62524;BME280;53689;56.878;60.672;2023-01-29T00:02:41;98126.88;;;22.13;22.74
62524;BME280;53689;56.878;60.672;2023-01-29T00:05:09;98129.94;;;22.10;23.12
62524;BME280;53689;56.878;60.672;2023-01-29T00:07:55;98137.84;;;22.11;23.16
62524;BME280;53689;56.878;60.672;2023-01-29T00:10:24;98130.56;;;22.05;22.75
62524;BME280;53689;56.878;60.672;2023-01-29T00:12:52;98134.53;;;22.16;22.96
62524;BME280;53689;56.878;60.672;2023-01-29T00:15:20;98122.09;;;22.15;23.14
62524;BME280;53689;56.878;60.672;2023-01-29T00:17:47;98117.13;;;22.12;23.09
62524;BME280;53689;56.878;60.672;2023-01-29T00:20:15;98116.09;;;22.13;23.16
62524;BME280;53689;56.878;60.672;2023-01-29T00:22:44;98126.44;;;22.16;23.51
62524;BME280;53689;56.878;60.672;2023-01-29T00:25:13;98126.44;;;22.16;23.42
62524;BME280;53689;56.878;60.672;2023-01-29T00:27:40;98135.78;;;22.13;23.40
62524;BME280;53689;56.878;60.672;2023-01-29T00:30:09;98137.22;;;22.02;23.04
62524;BME280;53689;56.878;60.672;2023-01-29T00:32:37;98137.03;;;22.17;23.35
62524;BME280;53689;56.878;60.672;2023-01-29T00:35:06;98132.25;;;22.13;23.82
62524;BME280;53689;56.878;60.672;2023-01-29T00:37:35;98134.53;;;22.16;23.42
62524;BME280;53689;56.878;60.672;2023-01-29T00:40:03;98126.44;;;22.16;23.50
62524;BME280;53689;56.878;60.672;2023-01-29T00:42:32;98128.53;;;22.14;23.23
62524;BME280;53689;56.878;60.672;2023-01-29T00:45:00;98135.34;;;22.10;23.33
62524;BME280;53689;56.878;60.672;2023-01-29T00:47:28;98128.28;;;22.09;23.03
62524;BME280;53689;56.878;60.672;2023-01-29T00:49:55;98125.84;;;22.14;23.37
62524;BME280;53689;56.878;60.672;2023-01-29T00:52:24;98130.00;;;22.16;22.66
62524;BME280;53689;56.878;60.672;2023-01-29T00:54:52;98136.00;;;22.18;22.98
62524;BME280;53689;56.878;60.672;2023-01-29T00:57:20;98138.28;;;22.15;22.96
62524;BME280;53689;56.878;60.672;2023-01-29T00:59:49;98138.09;;;22.16;23.07
62524;BME280;53689;56.878;60.672;2023-01-29T01:02:17;98142.19;;;22.12;23.03
62524;BME280;53689;56.878;60.672;2023-01-29T01:04:45;98144.28;;;22.17;23.29
62524;BME280;53689;56.878;60.672;2023-01-29T01:07:12;98144.09;;;22.18;22.87
62524;BME280;53689;56.878;60.672;2023-01-29T01:09:40;98134.13;;;22.19;23.38
62524;BME280;53689;56.878;60.672;2023-01-29T01:12:08;98136.63;;;22.14;22.80
62524;BME280;53689;56.878;60.672;2023-01-29T01:14:35;98139.75;;;22.17;23.05
62524;BME280;53689;56.878;60.672;2023-01-29T01:17:04;98144.28;;;22.17;23.04
62524;BME280;53689;56.878;60.672;2023-01-29T01:19:33;98136.63;;;22.21;23.34
62524;BME280;53689;56.878;60.672;2023-01-29T01:22:00;98135.16;;;22.18;23.20
62524;BME280;53689;56.878;60.672;2023-01-29T01:24:28;98141.59;;;22.17;22.86
62524;BME280;53689;56.878;60.672;2023-01-29T01:26:56;98130.38;;;22.13;23.32
62524;BME280;53689;56.878;60.672;2023-01-29T01:29:23;98134.34;;;22.11;22.99
62524;BME280;53689;56.878;60.672;2023-01-29T01:31:52;98135.16;;;22.18;23.30
62524;BME280;53689;56.878;60.672;2023-01-29T01:34:22;98128.34;;;22.15;23.70
62524;BME280;53689;56.878;60.672;2023-01-29T01:36:49;98124.16;;;22.13;23.60
62524;BME280;53689;56.878;60.672;2023-01-29T01:39:17;98130.19;;;22.15;23.21
62524;BME280;53689;56.878;60.672;2023-01-29T01:41:45;98122.72;;;22.17;23.61
62524;BME280;53689;56.878;60.672;2023-01-29T01:47:13;98118.56;;;22.14;22.91
62524;BME280;53689;56.878;60.672;2023-01-29T01:49:44;98125.84;;;22.14;23.31
62524;BME280;53689;56.878;60.672;2023-01-29T01:52:14;98119.22;;;22.16;23.55
62524;BME280;53689;56.878;60.672;2023-01-29T01:54:43;98117.13;;;22.12;23.46
62524;BME280;53689;56.878;60.672;2023-01-29T01:57:14;98113.16;;;22.14;22.82
62524;BME280;53689;56.878;60.672;2023-01-29T01:59:47;98105.91;;;22.15;23.47
62524;BME280;53689;56.878;60.672;2023-01-29T02:02:17;98116.91;;;22.13;22.99
62524;BME280;53689;56.878;60.672;2023-01-29T02:04:47;98124.16;;;22.13;23.43
62524;BME280;53689;56.878;60.672;2023-01-29T02:07:15;98120.44;;;22.14;23.17
62524;BME280;53689;56.878;60.672;2023-01-29T02:09:48;98122.72;;;22.10;22.83
62524;BME280;53689;56.878;60.672;2023-01-29T02:12:18;98113.38;;;22.13;22.47
62524;BME280;53689;56.878;60.672;2023-01-29T02:14:47;98111.50;;;22.13;22.91
62524;BME280;53689;56.878;60.672;2023-01-29T02:17:16;98108.63;;;22.15;22.90
62524;BME280;53689;56.878;60.672;2023-01-29T02:19:58;98106.53;;;22.10;22.94
62524;BME280;53689;56.878;60.672;2023-01-29T02:23:14;98107.38;;;22.11;22.59
62524;BME280;53689;56.878;60.672;2023-01-29T02:26:12;98111.94;;;22.17;22.85
62524;BME280;53689;56.878;60.672;2023-01-29T02:28:46;98105.91;;;22.15;22.95
62524;BME280;53689;56.878;60.672;2023-01-29T02:31:23;98106.97;;;22.14;22.88
62524;BME280;53689;56.878;60.672;2023-01-29T02:34:03;98106.72;;;22.09;22.81
62524;BME280;53689;56.878;60.672;2023-01-29T02:36:39;98111.50;;;22.13;23.28
62524;BME280;53689;56.878;60.672;2023-01-29T02:39:15;98117.53;;;22.15;22.97
62524;BME280;53689;56.878;60.672;2023-01-29T02:41:49;98114.00;;;22.08;23.46
62524;BME280;53689;56.878;60.672;2023-01-29T02:44:27;98116.72;;;22.15;22.89
62524;BME280;53689;56.878;60.672;2023-01-29T02:47:01;98117.94;;;22.06;23.34
62524;BME280;53689;56.878;60.672;2023-01-29T02:49:34;98119.59;;;22.13;22.66
62524;BME280;53689;56.878;60.672;2023-01-29T02:52:05;98116.09;;;22.13;22.35
62524;BME280;53689;56.878;60.672;2023-01-29T02:54:40;98117.75;;;22.14;23.28
62524;BME280;53689;56.878;60.672;2023-01-29T02:57:15;98124.38;;;22.11;22.96
62524;BME280;53689;56.878;60.672;2023-01-29T02:59:48;98121.88;;;22.10;22.62
62524;BME280;53689;56.878;60.672;2023-01-29T03:02:20;98131.84;;;21.54;22.22
62524;BME280;53689;56.878;60.672;2023-01-29T03:04:55;98123.50;;;21.97;22.54
62524;BME280;53689;56.878;60.672;2023-01-29T03:07:29;98125.41;;;22.03;22.36
62524;BME280;53689;56.878;60.672;2023-01-29T03:10:01;98124.78;;;22.01;21.82
62524;BME280;53689;56.878;60.672;2023-01-29T03:12:30;98128.81;;;21.70;23.10
62524;BME280;53689;56.878;60.672;2023-01-29T03:15:08;98128.09;;;21.97;22.50
62524;BME280;53689;56.878;60.672;2023-01-29T03:17:44;98120.41;;;22.00;21.93
62524;BME280;53689;56.878;60.672;2023-01-29T03:20:16;98120.81;;;22.04;22.18
62524;BME280;53689;56.878;60.672;2023-01-29T03:22:49;98123.53;;;22.04;22.48
62524;BME280;53689;56.878;60.672;2023-01-29T03:25:20;98112.53;;;22.06;22.50
62524;BME280;53689;56.878;60.672;2023-01-29T03:27:52;98118.75;;;21.99;22.86
62524;BME280;53689;56.878;60.672;2023-01-29T03:30:23;98125.19;;;22.05;22.66
62524;BME280;53689;56.878;60.672;2023-01-29T03:33:01;98129.56;;;22.06;22.85
62524;BME280;53689;56.878;60.672;2023-01-29T03:35:34;98123.13;;;22.07;22.72
62524;BME280;53689;56.878;60.672;2023-01-29T03:38:06;98115.44;;;22.04;22.63
62524;BME280;53689;56.878;60.672;2023-01-29T03:40:40;98120.44;;;22.07;22.81
62524;BME280;53689;56.878;60.672;2023-01-29T03:43:13;98112.13;;;22.09;23.32
62524;BME280;53689;56.878;60.672;2023-01-29T03:45:56;98118.56;;;22.08;23.07
62524;BME280;53689;56.878;60.672;2023-01-29T03:48:32;98122.91;;;22.09;22.66
62524;BME280;53689;56.878;60.672;2023-01-29T03:51:10;98122.09;;;22.08;23.20
62524;BME280;53689;56.878;60.672;2023-01-29T03:53:46;98120.84;;;22.11;22.81
62524;BME280;53689;56.878;60.672;2023-01-29T03:56:33;98109.22;;;22.03;23.40
62524;BME280;53689;56.878;60.672;2023-01-29T03:59:08;98109.22;;;22.10;23.29
62524;BME280;53689;56.878;60.672;2023-01-29T04:02:03;98110.06;;;22.11;23.29
62524;BME280;53689;56.878;60.672;2023-01-29T04:04:34;98115.66;;;22.09;23.57
62524;BME280;53689;56.878;60.672;2023-01-29T04:07:07;98112.34;;;22.07;23.26
62524;BME280;53689;56.878;60.672;2023-01-29T04:09:40;98118.16;;;22.11;23.39
62524;BME280;53689;56.878;60.672;2023-01-29T04:12:11;98127.25;;;22.10;23.52
62524;BME280;53689;56.878;60.672;2023-01-29T04:14:42;98118.97;;;22.11;23.21
62524;BME280;53689;56.878;60.672;2023-01-29T04:17:13;98118.34;;;22.09;23.30
62524;BME280;53689;56.878;60.672;2023-01-29T04:20:10;98105.06;;;22.08;23.36
62524;BME280;53689;56.878;60.672;2023-01-29T04:22:47;98110.25;;;22.02;23.41
62524;BME280;53689;56.878;60.672;2023-01-29T04:25:18;98121.47;;;22.06;23.71
62524;BME280;53689;56.878;60.672;2023-01-29T04:27:54;98118.56;;;22.08;23.98
62524;BME280;53689;56.878;60.672;2023-01-29T04:30:31;98110.88;;;22.04;22.88
62524;BME280;53689;56.878;60.672;2023-01-29T04:33:12;98106.34;;;22.12;22.73
62524;BME280;53689;56.878;60.672;2023-01-29T04:36:01;98103.66;;;22.12;22.58
62524;BME280;53689;56.878;60.672;2023-01-29T04:38:37;98112.53;;;22.06;23.32
62524;BME280;53689;56.878;60.672;2023-01-29T04:41:15;98112.34;;;22.07;23.34
62524;BME280;53689;56.878;60.672;2023-01-29T04:43:54;98107.78;;;22.08;23.01
62524;BME280;53689;56.878;60.672;2023-01-29T04:46:31;98100.72;;;22.07;23.10
62524;BME280;53689;56.878;60.672;2023-01-29T04:49:11;98102.00;;;22.11;23.21
62524;BME280;53689;56.878;60.672;2023-01-29T04:51:48;98101.34;;;22.09;23.05
62524;BME280;53689;56.878;60.672;2023-01-29T04:54:24;98101.34;;;22.09;22.98
62524;BME280;53689;56.878;60.672;2023-01-29T04:57:00;98096.16;;;22.07;23.24
62524;BME280;53689;56.878;60.672;2023-01-29T04:59:32;98100.28;;;22.10;23.38
62524;BME280;53689;56.878;60.672;2023-01-29T05:02:03;98096.16;;;22.07;23.43
62524;BME280;53689;56.878;60.672;2023-01-29T05:04:35;98093.25;;;22.09;23.07
62524;BME280;53689;56.878;60.672;2023-01-29T05:07:07;98097.22;;;22.06;22.78
62524;BME280;53689;56.878;60.672;2023-01-29T05:09:38;98098.44;;;22.10;23.06
62524;BME280;53689;56.878;60.672;2023-01-29T05:12:08;98095.75;;;22.10;23.42
62524;BME280;53689;56.878;60.672;2023-01-29T05:14:38;98094.72;;;22.11;23.44
62524;BME280;53689;56.878;60.672;2023-01-29T05:17:13;98088.69;;;22.09;23.25
62524;BME280;53689;56.878;60.672;2023-01-29T05:19:44;98094.09;;;22.09;23.25
62524;BME280;53689;56.878;60.672;2023-01-29T05:22:14;98092.00;;;22.11;22.97
62524;BME280;53689;56.878;60.672;2023-01-29T05:24:43;98081.44;;;22.10;23.42
62524;BME280;53689;56.878;60.672;2023-01-29T05:27:16;98084.53;;;22.07;23.24
62524;BME280;53689;56.878;60.672;2023-01-29T05:29:46;98079.56;;;22.03;23.11
62524;BME280;53689;56.878;60.672;2023-01-29T05:32:14;98091.81;;;22.06;22.91
62524;BME280;53689;56.878;60.672;2023-01-29T05:34:43;98094.28;;;22.08;23.07
62524;BME280;53689;56.878;60.672;2023-01-29T05:37:11;98093.25;;;22.02;23.35
62524;BME280;53689;56.878;60.672;2023-01-29T05:39:39;98089.13;;;22.06;23.25
62524;BME280;53689;56.878;60.672;2023-01-29T05:42:07;98085.59;;;22.06;22.73
62524;BME280;53689;56.878;60.672;2023-01-29T05:44:35;98083.94;;;22.04;23.34
62524;BME280;53689;56.878;60.672;2023-01-29T05:47:02;98087.25;;;22.07;23.49
62524;BME280;53689;56.878;60.672;2023-01-29T05:49:30;98089.75;;;22.08;23.90
62524;BME280;53689;56.878;60.672;2023-01-29T05:51:59;98086.00;;;22.02;23.20
62524;BME280;53689;56.878;60.672;2023-01-29T05:54:27;98088.47;;;22.04;23.34
62524;BME280;53689;56.878;60.672;2023-01-29T05:56:55;98089.13;;;22.06;23.02
62524;BME280;53689;56.878;60.672;2023-01-29T05:59:23;98086.81;;;22.10;23.03
62524;BME280;53689;56.878;60.672;2023-01-29T06:01:51;98086.00;;;22.09;23.35
62524;BME280;53689;56.878;60.672;2023-01-29T06:04:18;98084.13;;;22.03;23.33
62524;BME280;53689;56.878;60.672;2023-01-29T06:06:46;98077.69;;;22.04;23.19
62524;BME280;53689;56.878;60.672;2023-01-29T06:09:15;98077.50;;;22.06;22.88
62524;BME280;53689;56.878;60.672;2023-01-29T06:11:43;98075.66;;;22.06;23.07
62524;BME280;53689;56.878;60.672;2023-01-29T06:14:10;98079.56;;;22.10;22.74
62524;BME280;53689;56.878;60.672;2023-01-29T06:16:38;98080.41;;;22.11;22.60
62524;BME280;53689;56.878;60.672;2023-01-29T06:19:06;98075.03;;;22.11;22.94
62524;BME280;53689;56.878;60.672;2023-01-29T06:21:34;98081.22;;;22.11;23.22
62524;BME280;53689;56.878;60.672;2023-01-29T06:24:03;98081.44;;;22.03;22.57
62524;BME280;53689;56.878;60.672;2023-01-29T06:26:32;98071.50;;;22.10;22.81
62524;BME280;53689;56.878;60.672;2023-01-29T06:29:01;98074.19;;;22.10;22.93
62524;BME280;53689;56.878;60.672;2023-01-29T06:31:29;98082.06;;;22.12;22.63
62524;BME280;53689;56.878;60.672;2023-01-29T06:34:06;98086.44;;;22.06;23.45
62524;BME280;53689;56.878;60.672;2023-01-29T06:36:34;98086.19;;;22.14;23.10
62524;BME280;53689;56.878;60.672;2023-01-29T06:39:03;98086.44;;;22.13;23.11
62524;BME280;53689;56.878;60.672;2023-01-29T06:41:34;98070.44;;;22.11;22.90
62524;BME280;53689;56.878;60.672;2023-01-29T06:44:02;98077.50;;;22.12;23.04
62524;BME280;53689;56.878;60.672;2023-01-29T06:46:30;98073.34;;;22.10;23.39
62524;BME280;53689;56.878;60.672;2023-01-29T06:48:58;98073.34;;;22.10;23.44
62524;BME280;53689;56.878;60.672;2023-01-29T06:51:26;98070.03;;;22.14;23.16
62524;BME280;53689;56.878;60.672;2023-01-29T06:53:54;98066.94;;;22.11;22.96
62524;BME280;53689;56.878;60.672;2023-01-29T06:56:22;98057.59;;;22.13;23.09
62524;BME280;53689;56.878;60.672;2023-01-29T06:58:52;98064.00;;;22.12;23.30
62524;BME280;53689;56.878;60.672;2023-01-29T07:01:20;98069.22;;;22.14;23.22
62524;BME280;53689;56.878;60.672;2023-01-29T07:04:02;98070.88;;;22.15;23.51
62524;BME280;53689;56.878;60.672;2023-01-29T07:06:30;98073.56;;;22.15;23.42
62524;BME280;53689;56.878;60.672;2023-01-29T07:08:58;98072.31;;;22.11;23.09
62524;BME280;53689;56.878;60.672;2023-01-29T07:11:26;98080.00;;;22.14;23.11
62524;BME280;53689;56.878;60.672;2023-01-29T07:13:55;98079.81;;;22.15;23.61
62524;BME280;53689;56.878;60.672;2023-01-29T07:16:23;98074.00;;;22.12;23.24
62524;BME280;53689;56.878;60.672;2023-01-29T07:18:52;98075.84;;;22.11;23.25
62524;BME280;53689;56.878;60.672;2023-01-29T07:21:19;98082.88;;;22.12;23.32
62524;BME280;53689;56.878;60.672;2023-01-29T07:23:47;98078.97;;;22.15;23.04
62524;BME280;53689;56.878;60.672;2023-01-29T07:26:15;98082.69;;;22.14;22.82
62524;BME280;53689;56.878;60.672;2023-01-29T07:28:44;98078.75;;;22.16;22.97
62524;BME280;53689;56.878;60.672;2023-01-29T07:31:14;98067.13;;;22.16;23.11
62524;BME280;53689;56.878;60.672;2023-01-29T07:33:42;98074.19;;;22.17;22.91
62524;BME280;53689;56.878;60.672;2023-01-29T07:36:12;98072.31;;;22.17;22.96
62524;BME280;53689;56.878;60.672;2023-01-29T07:38:39;98075.22;;;22.16;23.05
62524;BME280;53689;56.878;60.672;2023-01-29T07:41:08;98071.06;;;22.13;23.66
62524;BME280;53689;56.878;60.672;2023-01-29T07:43:38;98066.72;;;22.12;23.10
62524;BME280;53689;56.878;60.672;2023-01-29T07:46:06;98061.13;;;22.14;22.92
62524;BME280;53689;56.878;60.672;2023-01-29T07:48:36;98071.72;;;22.15;23.34
62524;BME280;53689;56.878;60.672;2023-01-29T07:51:04;98066.31;;;22.15;22.99
62524;BME280;53689;56.878;60.672;2023-01-29T07:53:33;98068.78;;;22.17;23.10
62524;BME280;53689;56.878;60.672;2023-01-29T07:56:02;98054.69;;;22.15;23.48
62524;BME280;53689;56.878;60.672;2023-01-29T07:58:30;98055.72;;;22.14;23.25
62524;BME280;53689;56.878;60.672;2023-01-29T08:00:58;98055.50;;;22.09;23.50
62524;BME280;53689;56.878;60.672;2023-01-29T08:03:26;98058.84;;;22.11;22.76
62524;BME280;53689;56.878;60.672;2023-01-29T08:05:56;98054.69;;;22.15;22.89
62524;BME280;53689;56.878;60.672;2023-01-29T08:08:24;98054.88;;;22.13;23.35
62524;BME280;53689;56.878;60.672;2023-01-29T08:10:52;98049.72;;;22.12;22.87
62524;BME280;53689;56.878;60.672;2023-01-29T08:13:19;98054.28;;;22.11;23.00
62524;BME280;53689;56.878;60.672;2023-01-29T08:15:47;98054.06;;;22.13;22.83
62524;BME280;53689;56.878;60.672;2023-01-29T08:18:15;98054.47;;;22.10;23.01
62524;BME280;53689;56.878;60.672;2023-01-29T08:20:42;98051.38;;;22.13;22.91
62524;BME280;53689;56.878;60.672;2023-01-29T08:23:12;98045.13;;;22.12;23.08
62524;BME280;53689;56.878;60.672;2023-01-29T08:25:41;98046.38;;;22.10;22.96
62524;BME280;53689;56.878;60.672;2023-01-29T08:28:09;98040.78;;;22.11;23.03
62524;BME280;53689;56.878;60.672;2023-01-29T08:30:37;98044.53;;;22.10;22.45
62524;BME280;53689;56.878;60.672;2023-01-29T08:33:05;98041.84;;;22.10;23.36
62524;BME280;53689;56.878;60.672;2023-01-29T08:35:32;98037.28;;;22.11;22.67
62524;BME280;53689;56.878;60.672;2023-01-29T08:38:00;98033.53;;;22.12;23.26
62524;BME280;53689;56.878;60.672;2023-01-29T08:40:32;98043.91;;;22.08;23.12
62524;BME280;53689;56.878;60.672;2023-01-29T08:43:00;98027.84;;;21.59;23.15
62524;BME280;53689;56.878;60.672;2023-01-29T08:45:33;98032.91;;;21.89;23.06
62524;BME280;53689;56.878;60.672;2023-01-29T08:48:01;98030.81;;;22.05;22.63
62524;BME280;53689;56.878;60.672;2023-01-29T08:50:29;98033.13;;;22.01;23.20
62524;BME280;53689;56.878;60.672;2023-01-29T08:52:57;98031.88;;;22.11;22.31
62524;BME280;53689;56.878;60.672;2023-01-29T08:55:25;98037.47;;;22.09;22.68
62524;BME280;53689;56.878;60.672;2023-01-29T08:57:55;98029.19;;;22.11;22.84
62524;BME280;53689;56.878;60.672;2023-01-29T09:00:22;98033.13;;;22.08;22.93
62524;BME280;53689;56.878;60.672;2023-01-29T09:02:50;98025.22;;;22.07;23.23
62524;BME280;53689;56.878;60.672;2023-01-29T09:05:18;98027.50;;;22.03;22.81
62524;BME280;53689;56.878;60.672;2023-01-29T09:07:46;98022.72;;;22.05;23.34
62524;BME280;53689;56.878;60.672;2023-01-29T09:10:15;98012.78;;;22.06;23.30
62524;BME280;53689;56.878;60.672;2023-01-29T09:12:43;98016.09;;;22.08;22.88
62524;BME280;53689;56.878;60.672;2023-01-29T09:15:12;98017.56;;;22.03;22.63
62524;BME280;53689;56.878;60.672;2023-01-29T09:17:40;98010.72;;;22.08;23.24
62524;BME280;53689;56.878;60.672;2023-01-29T09:20:09;98020.88;;;22.06;23.27
62524;BME280;53689;56.878;60.672;2023-01-29T09:22:37;98014.88;;;22.03;23.05
62524;BME280;53689;56.878;60.672;2023-01-29T09:25:05;98016.53;;;22.11;23.30
62524;BME280;53689;56.878;60.672;2023-01-29T09:27:33;98018.59;;;22.09;23.19
62524;BME280;53689;56.878;60.672;2023-01-29T09:30:01;98011.56;;;22.08;23.61
62524;BME280;53689;56.878;60.672;2023-01-29T09:32:32;98021.09;;;22.11;22.92
62524;BME280;53689;56.878;60.672;2023-01-29T09:35:20;98025.84;;;22.09;22.87
62524;BME280;53689;56.878;60.672;2023-01-29T09:37:49;98024.81;;;22.10;23.35
62524;BME280;53689;56.878;60.672;2023-01-29T09:40:22;98025.84;;;22.09;23.05
62524;BME280;53689;56.878;60.672;2023-01-29T09:42:54;98027.13;;;22.13;22.93
62524;BME280;53689;56.878;60.672;2023-01-29T09:45:26;98026.50;;;22.11;23.19
62524;BME280;53689;56.878;60.672;2023-01-29T09:47:58;98022.75;;;22.12;23.11
62524;BME280;53689;56.878;60.672;2023-01-29T09:50:30;98023.81;;;22.11;23.26
62524;BME280;53689;56.878;60.672;2023-01-29T09:53:02;98019.41;;;22.10;22.97
62524;BME280;53689;56.878;60.672;2023-01-29T09:55:33;98014.66;;;22.12;23.13
62524;BME280;53689;56.878;60.672;2023-01-29T09:58:10;98002.22;;;22.11;22.93
62524;BME280;53689;56.878;60.672;2023-01-29T10:00:46;98004.50;;;22.14;23.09
62524;BME280;53689;56.878;60.672;2023-01-29T10:03:34;98001.81;;;22.14;22.78
62524;BME280;53689;56.878;60.672;2023-01-29T10:06:19;98015.72;;;22.11;22.93
62524;BME280;53689;56.878;60.672;2023-01-29T10:09:07;98009.69;;;22.15;23.38
62524;BME280;53689;56.878;60.672;2023-01-29T10:11:54;98009.47;;;22.03;23.21
62524;BME280;53689;56.878;60.672;2023-01-29T10:14:32;98007.81;;;22.02;23.57
62524;BME280;53689;56.878;60.672;2023-01-29T10:17:10;98011.75;;;22.07;23.76
62524;BME280;53689;56.878;60.672;2023-01-29T10:20:02;98015.72;;;22.11;23.49
62524;BME280;53689;56.878;60.672;2023-01-29T10:22:59;98017.38;;;22.12;23.25
62524;BME280;53689;56.878;60.672;2023-01-29T10:25:32;98024.41;;;22.13;23.23
62524;BME280;53689;56.878;60.672;2023-01-29T10:28:04;98025.22;;;22.13;23.04
62524;BME280;53689;56.878;60.672;2023-01-29T10:30:46;98035.19;;;22.13;22.98
62524;BME280;53689;56.878;60.672;2023-01-29T10:33:22;98037.06;;;22.12;23.05
62524;BME280;53689;56.878;60.672;2023-01-29T10:35:57;98024.41;;;22.13;23.35
62524;BME280;53689;56.878;60.672;2023-01-29T10:38:45;98031.66;;;22.06;22.97
62524;BME280;53689;56.878;60.672;2023-01-29T10:41:21;98025.66;;;22.10;22.94
62524;BME280;53689;56.878;60.672;2023-01-29T10:44:00;98018.41;;;22.11;23.00
62524;BME280;53689;56.878;60.672;2023-01-29T10:46:45;98022.34;;;22.15;23.02
62524;BME280;53689;56.878;60.672;2023-01-29T10:49:27;98017.13;;;22.13;22.76
62524;BME280;53689;56.878;60.672;2023-01-29T10:52:15;98017.97;;;22.14;23.12
62524;BME280;53689;56.878;60.672;2023-01-29T10:54:56;98014.88;;;22.10;23.09
62524;BME280;53689;56.878;60.672;2023-01-29T10:57:41;98026.50;;;22.11;23.35
62524;BME280;53689;56.878;60.672;2023-01-29T11:00:19;98015.72;;;22.11;23.29
62524;BME280;53689;56.878;60.672;2023-01-29T11:02:49;98026.28;;;22.12;23.15
62524;BME280;53689;56.878;60.672;2023-01-29T11:05:24;98018.19;;;22.12;23.51
62524;BME280;53689;56.878;60.672;2023-01-29T11:08:02;98019.03;;;22.13;23.19
62524;BME280;53689;56.878;60.672;2023-01-29T11:10:36;98017.13;;;22.13;23.26
62524;BME280;53689;56.878;60.672;2023-01-29T11:13:07;98011.97;;;22.12;23.31
62524;BME280;53689;56.878;60.672;2023-01-29T11:15:39;98019.03;;;22.13;23.11
62524;BME280;53689;56.878;60.672;2023-01-29T11:18:08;98029.59;;;22.14;23.15
62524;BME280;53689;56.878;60.672;2023-01-29T11:20:38;98017.38;;;22.12;23.49
62524;BME280;53689;56.878;60.672;2023-01-29T11:23:24;98022.13;;;22.10;23.55
62524;BME280;53689;56.878;60.672;2023-01-29T11:25:52;98010.94;;;22.13;23.17
62524;BME280;53689;56.878;60.672;2023-01-29T11:28:36;98019.41;;;22.10;22.93
62524;BME280;53689;56.878;60.672;2023-01-29T11:31:15;98022.53;;;22.13;23.06
62524;BME280;53689;56.878;60.672;2023-01-29T11:33:45;98029.19;;;22.11;23.26
62524;BME280;53689;56.878;60.672;2023-01-29T11:36:20;98026.28;;;22.12;23.21
62524;BME280;53689;56.878;60.672;2023-01-29T11:39:08;98014.44;;;22.07;22.95
62524;BME280;53689;56.878;60.672;2023-01-29T11:41:43;98021.09;;;22.11;23.25
62524;BME280;53689;56.878;60.672;2023-01-29T11:44:19;98029.81;;;22.13;22.84
62524;BME280;53689;56.878;60.672;2023-01-29T11:46:48;98023.56;;;22.12;22.93
62524;BME280;53689;56.878;60.672;2023-01-29T11:49:29;98029.38;;;22.09;23.06
62524;BME280;53689;56.878;60.672;2023-01-29T11:52:00;98022.75;;;22.12;23.02
62524;BME280;53689;56.878;60.672;2023-01-29T11:54:33;98024.81;;;22.10;23.26
62524;BME280;53689;56.878;60.672;2023-01-29T11:57:03;98020.47;;;22.09;22.81
62524;BME280;53689;56.878;60.672;2023-01-29T11:59:41;98026.50;;;22.11;23.03
62524;BME280;53689;56.878;60.672;2023-01-29T12:02:19;98019.41;;;22.10;23.43
62524;BME280;53689;56.878;60.672;2023-01-29T12:04:50;98017.38;;;22.12;22.77
62524;BME280;53689;56.878;60.672;2023-01-29T12:07:18;98015.47;;;22.12;23.08
62524;BME280;53689;56.878;60.672;2023-01-29T12:09:53;98017.38;;;22.12;22.98
62524;BME280;53689;56.878;60.672;2023-01-29T12:12:31;98010.31;;;22.11;22.87
62524;BME280;53689;56.878;60.672;2023-01-29T12:15:21;98012.59;;;22.14;22.88
62524;BME280;53689;56.878;60.672;2023-01-29T12:17:58;98006.59;;;22.12;23.41
62524;BME280;53689;56.878;60.672;2023-01-29T12:20:33;98009.28;;;22.12;23.26
62524;BME280;53689;56.878;60.672;2023-01-29T12:23:11;98006.97;;;22.09;22.86
62524;BME280;53689;56.878;60.672;2023-01-29T12:25:50;98008.44;;;22.11;23.18
62524;BME280;53689;56.878;60.672;2023-01-29T12:28:33;98009.06;;;22.00;22.95
62524;BME280;53689;56.878;60.672;2023-01-29T12:31:25;98011.13;;;22.11;23.75
62524;BME280;53689;56.878;60.672;2023-01-29T12:34:00;98011.97;;;22.12;23.37
62524;BME280;53689;56.878;60.672;2023-01-29T12:36:35;98010.31;;;22.11;23.80
62524;BME280;53689;56.878;60.672;2023-01-29T12:39:05;98000.78;;;22.08;23.84
62524;BME280;53689;56.878;60.672;2023-01-29T12:41:38;97996.00;;;22.10;23.51
62524;BME280;53689;56.878;60.672;2023-01-29T12:44:13;98002.63;;;22.08;23.36
62524;BME280;53689;56.878;60.672;2023-01-29T12:46:46;97997.44;;;21.99;23.07
62524;BME280;53689;56.878;60.672;2023-01-29T12:49:17;97992.69;;;22.01;23.42
62524;BME280;53689;56.878;60.672;2023-01-29T12:51:52;97986.44;;;22.08;23.23
62524;BME280;53689;56.878;60.672;2023-01-29T12:54:30;97989.56;;;22.11;23.33
62524;BME280;53689;56.878;60.672;2023-01-29T12:57:06;97982.53;;;22.10;23.45
62524;BME280;53689;56.878;60.672;2023-01-29T12:59:39;97986.66;;;22.13;23.11
62524;BME280;53689;56.878;60.672;2023-01-29T13:02:17;97982.09;;;22.13;22.93
62524;BME280;53689;56.878;60.672;2023-01-29T13:04:53;97988.75;;;22.11;22.92
62524;BME280;53689;56.878;60.672;2023-01-29T13:07:28;97995.81;;;22.12;23.06
62524;BME280;53689;56.878;60.672;2023-01-29T13:10:03;97984.19;;;22.11;23.18
62524;BME280;53689;56.878;60.672;2023-01-29T13:12:38;97978.97;;;22.10;23.30
62524;BME280;53689;56.878;60.672;2023-01-29T13:15:16;97976.69;;;22.13;23.12
62524;BME280;53689;56.878;60.672;2023-01-29T13:17:50;97976.94;;;22.12;22.86
62524;BME280;53689;56.878;60.672;2023-01-29T13:20:23;97980.66;;;22.11;23.10